Time;durP1;ratioP1;P1;durP2;ratioP2;P2;SDS_P1;SDS_P2;PMS_P1;PMS_P2;Temp;Humidity;BMP_temperature;BMP_pressure;BME280_temperature;BME280_humidity;BME280_pressure;Samples;Min_cycle;Max_cycle;Signal;HPM_P1;HPM_P2
2023/09/05 00:02:21;;;;;;;7.93;4.37;;;11.30;99.90;;;;;;4413267;28;655782;-67
2023/09/05 00:05:09;;;;;;;10.50;4.37;;;11.30;99.90;;;;;;4385966;28;656502;-67
2023/09/05 00:07:58;;;;;;;9.03;4.77;;;11.30;99.90;;;;;;4405268;28;657532;-67
2023/09/05 00:10:45;;;;;;;7.10;4.20;;;11.30;99.90;;;;;;4385113;28;657444;-67
2023/09/05 00:13:32;;;;;;;9.02;4.18;;;11.30;99.90;;;;;;4387180;28;657083;-67
2023/09/05 00:16:20;;;;;;;12.07;4.57;;;11.20;99.90;;;;;;4406701;28;657181;-67
2023/09/05 00:19:07;;;;;;;8.77;4.33;;;11.20;99.90;;;;;;4408918;28;657866;-67
2023/09/05 00:21:55;;;;;;;10.47;4.27;;;11.20;99.90;;;;;;4412759;28;657036;-67
2023/09/05 00:24:44;;;;;;;7.40;4.17;;;11.10;99.90;;;;;;4404624;28;657479;-67
2023/09/05 00:27:34;;;;;;;6.40;4.13;;;11.10;99.90;;;;;;4405808;28;656861;-67
2023/09/05 00:30:22;;;;;;;8.20;4.43;;;11.10;99.90;;;;;;4380429;28;657020;-67
2023/09/05 00:33:09;;;;;;;6.53;4.30;;;11.00;99.90;;;;;;4387852;28;657070;-67
2023/09/05 00:35:56;;;;;;;9.87;4.30;;;10.90;99.90;;;;;;4408563;28;655977;-67
2023/09/05 00:38:47;;;;;;;9.03;3.97;;;10.90;99.90;;;;;;4389118;28;656558;-67
2023/09/05 00:41:37;;;;;;;7.53;4.20;;;10.90;99.90;;;;;;4385494;28;656679;-67
2023/09/05 00:44:24;;;;;;;6.43;4.00;;;10.90;99.90;;;;;;4384195;28;657963;-67
2023/09/05 00:47:12;;;;;;;10.43;4.33;;;10.80;99.90;;;;;;4414887;28;656888;-67
2023/09/05 00:50:03;;;;;;;5.63;4.13;;;10.80;99.90;;;;;;4391283;28;658333;-67
2023/09/05 00:52:50;;;;;;;7.80;4.27;;;10.80;99.90;;;;;;4385529;28;656592;-67
2023/09/05 00:55:37;;;;;;;8.13;4.80;;;10.70;99.90;;;;;;4403547;28;656286;-67
2023/09/05 00:58:26;;;;;;;8.93;4.33;;;10.70;99.90;;;;;;4410034;28;658031;-67
2023/09/05 01:01:13;;;;;;;8.70;4.57;;;10.70;99.90;;;;;;4388897;28;656144;-67
2023/09/05 01:04:00;;;;;;;10.17;4.87;;;10.70;99.90;;;;;;4408790;28;657466;-67
2023/09/05 01:06:57;;;;;;;13.27;4.90;;;10.60;99.90;;;;;;4380808;28;657763;-67
2023/09/05 01:09:49;;;;;;;9.53;4.63;;;10.50;99.90;;;;;;4359774;28;658496;-67
2023/09/05 01:12:37;;;;;;;11.80;4.40;;;10.60;99.90;;;;;;4390388;28;657461;-67
2023/09/05 01:15:25;;;;;;;11.13;4.83;;;10.50;99.90;;;;;;4382976;28;657505;-67
2023/09/05 01:18:13;;;;;;;6.53;4.78;;;10.50;99.90;;;;;;4389768;28;658058;-67
2023/09/05 01:21:13;;;;;;;9.73;4.67;;;10.50;99.90;;;;;;4420069;28;657372;-67
2023/09/05 01:24:15;;;;;;;7.87;4.63;;;10.50;99.90;;;;;;4380721;28;656940;-67
2023/09/05 01:27:02;;;;;;;6.33;4.20;;;10.50;99.90;;;;;;4389797;28;656382;-67
2023/09/05 01:29:49;;;;;;;7.23;4.67;;;10.50;99.90;;;;;;4390040;28;657601;-67
2023/09/05 01:32:36;;;;;;;9.87;4.77;;;10.40;99.90;;;;;;4408595;28;656554;-67
2023/09/05 01:35:24;;;;;;;13.10;4.83;;;10.40;99.90;;;;;;4392465;28;657124;-67
2023/09/05 01:38:11;;;;;;;7.73;4.47;;;10.40;99.90;;;;;;4413796;28;658106;-67
2023/09/05 01:40:59;;;;;;;8.80;4.73;;;10.40;99.90;;;;;;4390374;28;657062;-67
2023/09/05 01:43:47;;;;;;;9.13;4.53;;;10.40;99.90;;;;;;4411656;28;658405;-67
2023/09/05 01:46:34;;;;;;;7.47;4.63;;;10.40;99.90;;;;;;4384755;28;656665;-67
2023/09/05 01:49:21;;;;;;;9.87;4.80;;;10.40;99.90;;;;;;4404457;28;656727;-67
2023/09/05 01:52:08;;;;;;;10.20;4.50;;;10.40;99.90;;;;;;4389457;28;656671;-67
2023/09/05 01:54:55;;;;;;;12.93;5.07;;;10.30;99.90;;;;;;4408745;28;658892;-67
2023/09/05 01:57:44;;;;;;;15.23;5.07;;;10.30;99.90;;;;;;4389365;28;657860;-67
2023/09/05 02:00:31;;;;;;;10.10;5.30;;;10.30;99.90;;;;;;4409039;28;657633;-67
2023/09/05 02:03:18;;;;;;;9.20;5.60;;;10.30;99.90;;;;;;4392007;28;657739;-67
2023/09/05 02:06:05;;;;;;;12.45;5.35;;;10.30;99.90;;;;;;4415792;28;656918;-66
2023/09/05 02:08:53;;;;;;;8.57;4.90;;;10.20;99.90;;;;;;4389062;28;657846;-67
2023/09/05 02:11:40;;;;;;;13.73;4.90;;;10.20;99.90;;;;;;4408647;28;657795;-67
2023/09/05 02:14:29;;;;;;;11.63;5.80;;;10.20;99.90;;;;;;4398816;28;658367;-67
2023/09/05 02:17:18;;;;;;;11.20;5.30;;;10.20;99.90;;;;;;4411519;28;657672;-67
2023/09/05 02:20:06;;;;;;;6.67;4.73;;;10.20;99.90;;;;;;4383671;28;658149;-67
2023/09/05 02:22:53;;;;;;;11.40;5.30;;;10.20;99.90;;;;;;4382965;28;656620;-67
2023/09/05 02:25:40;;;;;;;8.87;5.33;;;10.30;99.90;;;;;;4411820;28;658082;-67
2023/09/05 02:28:28;;;;;;;9.37;5.63;;;10.30;99.90;;;;;;4385107;28;657052;-67
2023/09/05 02:31:16;;;;;;;9.70;5.10;;;10.40;99.90;;;;;;4414570;28;657464;-67
2023/09/05 02:34:03;;;;;;;9.88;5.82;;;10.30;99.90;;;;;;4392667;28;657054;-67
2023/09/05 02:36:53;;;;;;;12.47;6.00;;;10.30;99.90;;;;;;4409242;28;657495;-67
2023/09/05 02:39:41;;;;;;;10.83;5.67;;;10.30;99.90;;;;;;4388213;28;658292;-67
2023/09/05 02:42:28;;;;;;;11.43;6.43;;;10.30;99.90;;;;;;4388520;28;657538;-67
2023/09/05 02:45:16;;;;;;;8.73;5.70;;;10.30;99.90;;;;;;4413180;28;658905;-67
2023/09/05 02:48:05;;;;;;;11.37;5.83;;;10.30;99.90;;;;;;4385293;28;656930;-67
2023/09/05 02:51:03;;;;;;;11.33;5.73;;;10.30;99.90;;;;;;4389884;28;658654;-67
2023/09/05 02:53:50;;;;;;;10.90;5.63;;;10.30;99.90;;;;;;4365135;28;658251;-67
2023/09/05 02:56:37;;;;;;;13.60;4.97;;;10.30;99.90;;;;;;4415006;28;657824;-67
2023/09/05 02:59:25;;;;;;;9.60;5.53;;;10.20;99.90;;;;;;4404346;28;658620;-67
2023/09/05 03:02:12;;;;;;;10.47;6.27;;;10.20;99.90;;;;;;4410014;28;656450;-67
2023/09/05 03:05:01;;;;;;;8.67;5.43;;;10.20;99.90;;;;;;4407135;28;657796;-67
2023/09/05 03:07:48;;;;;;;10.23;5.27;;;10.20;99.90;;;;;;4382899;28;656617;-67
2023/09/05 03:10:36;;;;;;;11.07;5.80;;;10.20;99.90;;;;;;4409887;28;658188;-67
2023/09/05 03:13:23;;;;;;;7.07;5.30;;;10.20;99.90;;;;;;4387282;28;658218;-67
2023/09/05 03:16:12;;;;;;;7.50;5.87;;;10.20;99.90;;;;;;4403998;28;656796;-67
2023/09/05 03:18:59;;;;;;;10.47;6.57;;;10.30;99.90;;;;;;4388158;28;658186;-67
2023/09/05 03:21:48;;;;;;;16.57;6.57;;;10.30;99.90;;;;;;4415767;28;657718;-67
2023/09/05 03:24:35;;;;;;;10.17;5.70;;;10.30;99.90;;;;;;4383062;28;658066;-67
2023/09/05 03:27:23;;;;;;;10.73;6.00;;;10.30;99.90;;;;;;4391821;28;658024;-67
2023/09/05 03:30:10;;;;;;;11.20;6.23;;;10.30;99.90;;;;;;4402213;28;657702;-67
2023/09/05 03:32:58;;;;;;;15.07;5.83;;;10.30;99.90;;;;;;4382918;28;657511;-67
2023/09/05 03:35:45;;;;;;;9.67;6.13;;;10.20;99.90;;;;;;4404191;28;657621;-67
2023/09/05 03:38:34;;;;;;;11.13;6.07;;;10.20;99.90;;;;;;4392599;28;656834;-67
2023/09/05 03:41:21;;;;;;;12.60;6.33;;;10.30;99.90;;;;;;4407628;28;657068;-67
2023/09/05 03:44:08;;;;;;;8.63;5.90;;;10.40;99.90;;;;;;4387370;28;658512;-67
2023/09/05 03:46:57;;;;;;;11.38;6.00;;;10.30;99.90;;;;;;4408488;28;657058;-67
2023/09/05 03:49:44;;;;;;;7.73;5.73;;;10.30;99.90;;;;;;4382424;28;658826;-67
2023/09/05 03:52:31;;;;;;;12.97;5.83;;;10.30;99.90;;;;;;4408025;28;657278;-67
2023/09/05 03:55:20;;;;;;;7.50;5.40;;;10.30;99.90;;;;;;4383888;28;657786;-67
2023/09/05 03:58:08;;;;;;;11.03;5.80;;;10.30;99.90;;;;;;4390504;28;657064;-67
2023/09/05 04:01:02;;;;;;;12.97;5.60;;;10.30;99.90;;;;;;4406627;28;658790;-67
2023/09/05 04:03:50;;;;;;;9.70;5.63;;;10.20;99.90;;;;;;4349042;28;657645;-67
2023/09/05 04:06:38;;;;;;;12.40;6.23;;;10.20;99.90;;;;;;4400115;28;656695;-67
2023/09/05 04:09:25;;;;;;;15.70;5.93;;;10.20;99.90;;;;;;4402299;28;659135;-67
2023/09/05 04:12:14;;;;;;;12.97;6.10;;;10.10;99.90;;;;;;4389182;28;658016;-67
2023/09/05 04:15:01;;;;;;;10.50;5.83;;;10.20;99.90;;;;;;4401080;28;658309;-67
2023/09/05 04:17:50;;;;;;;9.87;6.07;;;10.20;99.90;;;;;;4384696;28;657475;-67
2023/09/05 04:20:37;;;;;;;8.27;5.63;;;10.20;99.90;;;;;;4390009;28;657087;-67
2023/09/05 04:23:25;;;;;;;10.90;6.33;;;10.30;99.90;;;;;;4408138;28;656833;-67
2023/09/05 04:26:12;;;;;;;8.40;5.43;;;10.30;99.90;;;;;;4408228;28;657255;-67
2023/09/05 04:29:00;;;;;;;10.07;6.27;;;10.40;99.90;;;;;;4386376;28;657664;-67
2023/09/05 04:31:48;;;;;;;8.10;5.40;;;10.40;99.90;;;;;;4386319;28;657562;-67
2023/09/05 04:34:35;;;;;;;10.47;6.53;;;10.40;99.90;;;;;;4408198;28;656170;-67
2023/09/05 04:37:22;;;;;;;14.70;6.23;;;10.50;99.90;;;;;;4399664;28;658719;-67
2023/09/05 04:40:10;;;;;;;12.93;6.70;;;10.60;99.90;;;;;;4407546;28;658057;-67
2023/09/05 04:42:58;;;;;;;11.25;6.32;;;10.60;99.90;;;;;;4394292;28;657795;-67
2023/09/05 04:45:54;;;;;;;11.73;6.03;;;10.70;99.90;;;;;;4410171;28;658637;-67
2023/09/05 04:48:41;;;;;;;9.27;6.53;;;10.80;99.90;;;;;;4374066;28;657869;-67
2023/09/05 04:51:28;;;;;;;15.03;6.63;;;10.80;99.90;;;;;;4392484;28;657481;-67
2023/09/05 04:54:16;;;;;;;12.20;6.90;;;10.90;99.90;;;;;;4407714;28;658818;-67
2023/09/05 04:57:03;;;;;;;10.63;6.20;;;11.00;99.90;;;;;;4389534;28;657518;-67
2023/09/05 04:59:56;;;;;;;13.20;6.53;;;11.10;99.90;;;;;;4409535;28;658353;-67
2023/09/05 05:02:45;;;;;;;13.70;6.90;;;11.10;99.90;;;;;;4364248;28;658730;-67
2023/09/05 05:05:32;;;;;;;17.48;7.30;;;11.20;99.90;;;;;;4398741;28;657364;-67
2023/09/05 05:08:20;;;;;;;15.10;8.40;;;11.30;99.90;;;;;;4412079;28;658479;-67
2023/09/05 05:11:07;;;;;;;12.23;6.93;;;11.40;99.90;;;;;;4408466;28;657654;-67
2023/09/05 05:13:55;;;;;;;15.83;7.23;;;11.50;99.90;;;;;;4409904;28;658732;-68
2023/09/05 05:16:43;;;;;;;12.40;7.13;;;11.60;99.90;;;;;;4412098;28;657748;-68
2023/09/05 05:19:32;;;;;;;13.53;8.83;;;11.80;99.90;;;;;;4388475;28;657887;-67
2023/09/05 05:22:19;;;;;;;12.73;7.87;;;11.90;99.90;;;;;;4391056;28;658205;-67
2023/09/05 05:25:07;;;;;;;19.13;8.80;;;12.10;99.90;;;;;;4413839;28;658247;-67
2023/09/05 05:27:54;;;;;;;15.07;9.20;;;12.20;99.90;;;;;;4392510;28;658391;-67
2023/09/05 05:30:41;;;;;;;18.53;9.23;;;12.30;99.90;;;;;;4411245;28;657226;-67
2023/09/05 05:33:28;;;;;;;16.50;8.87;;;12.50;99.90;;;;;;4391130;28;658133;-67
2023/09/05 05:36:17;;;;;;;12.03;8.07;;;12.60;99.90;;;;;;4410976;28;658542;-68
2023/09/05 05:39:04;;;;;;;15.93;7.97;;;12.70;99.90;;;;;;4388622;28;658866;-68
2023/09/05 05:41:51;;;;;;;11.73;8.17;;;12.90;99.90;;;;;;4414853;28;657830;-67
2023/09/05 05:44:39;;;;;;;17.77;9.63;;;13.00;99.90;;;;;;4388287;28;657776;-67
2023/09/05 05:47:27;;;;;;;13.87;9.00;;;13.20;99.90;;;;;;4408248;28;657710;-68
2023/09/05 05:50:14;;;;;;;20.97;8.50;;;13.40;99.90;;;;;;4391352;28;658149;-68
2023/09/05 05:53:02;;;;;;;13.23;8.00;;;13.60;99.90;;;;;;4407400;28;657986;-68
2023/09/05 05:55:50;;;;;;;11.43;8.03;;;13.70;99.90;;;;;;4390081;28;657859;-67
2023/09/05 05:58:38;;;;;;;12.17;9.03;;;13.90;99.90;;;;;;4403076;28;657961;-67
2023/09/05 06:01:25;;;;;;;16.43;9.73;;;14.10;99.90;;;;;;4412708;28;657879;-68
2023/09/05 06:04:15;;;;;;;19.70;9.20;;;14.20;99.90;;;;;;4400913;28;657643;-67
2023/09/05 06:07:02;;;;;;;15.27;9.50;;;14.40;99.90;;;;;;4396606;28;657237;-67
2023/09/05 06:09:51;;;;;;;16.07;10.30;;;14.60;99.90;;;;;;4412497;28;657898;-67
2023/09/05 06:12:38;;;;;;;16.33;10.63;;;14.80;99.90;;;;;;4391131;28;658395;-67
2023/09/05 06:15:25;;;;;;;16.87;10.00;;;14.90;99.90;;;;;;4408577;28;659367;-67
2023/09/05 06:18:13;;;;;;;16.73;11.33;;;15.10;99.90;;;;;;4389529;28;658975;-67
2023/09/05 06:21:00;;;;;;;19.90;11.80;;;15.30;99.90;;;;;;4408725;28;659904;-68
2023/09/05 06:23:48;;;;;;;15.13;10.63;;;15.50;99.90;;;;;;4389911;28;658782;-67
2023/09/05 06:26:36;;;;;;;18.53;11.53;;;15.70;99.90;;;;;;4399868;28;659634;-67
2023/09/05 06:29:24;;;;;;;19.40;11.13;;;15.90;99.90;;;;;;4388127;28;658513;-67
2023/09/05 06:32:12;;;;;;;17.77;10.10;;;16.00;99.90;;;;;;4401050;28;659206;-67
2023/09/05 06:34:59;;;;;;;18.27;10.33;;;16.20;99.90;;;;;;4380319;28;658294;-67
2023/09/05 06:37:46;;;;;;;14.83;9.63;;;16.40;99.90;;;;;;4412678;28;658870;-67
2023/09/05 06:40:33;;;;;;;16.37;9.60;;;16.60;99.90;;;;;;4378045;28;657886;-67
2023/09/05 06:43:22;;;;;;;19.70;9.73;;;16.70;99.90;;;;;;4407149;28;657992;-67
2023/09/05 06:46:09;;;;;;;21.87;8.03;;;16.90;99.90;;;;;;4382545;28;659476;-67
2023/09/05 06:48:57;;;;;;;14.67;7.73;;;17.10;99.90;;;;;;4404720;28;657608;-67
2023/09/05 06:51:44;;;;;;;10.77;7.50;;;17.20;99.90;;;;;;4383102;28;658255;-67
2023/09/05 06:54:31;;;;;;;12.03;7.40;;;17.40;99.90;;;;;;4402239;28;657466;-67
2023/09/05 06:57:19;;;;;;;16.17;7.20;;;17.60;99.90;;;;;;4380918;28;657400;-67
2023/09/05 07:00:10;;;;;;;11.43;6.50;;;17.70;99.90;;;;;;4404197;28;658422;-67
2023/09/05 07:02:57;;;;;;;12.47;5.77;;;17.90;99.90;;;;;;4375505;28;658521;-67
2023/09/05 07:05:45;;;;;;;13.47;5.90;;;18.10;99.90;;;;;;4410130;28;659881;-67
2023/09/05 07:08:32;;;;;;;13.30;5.63;;;18.20;99.90;;;;;;4394644;28;658224;-67
2023/09/05 07:11:20;;;;;;;9.07;4.73;;;18.30;99.90;;;;;;4403448;28;659040;-67
2023/09/05 07:14:09;;;;;;;8.20;4.73;;;18.50;99.90;;;;;;4387778;28;658821;-67
2023/09/05 07:16:58;;;;;;;9.77;4.90;;;18.70;99.90;;;;;;4408295;28;656103;-67
2023/09/05 07:19:46;;;;;;;12.00;4.37;;;18.90;99.90;;;;;;4387255;28;656970;-68
2023/09/05 07:22:33;;;;;;;8.63;4.37;;;19.10;99.90;;;;;;4380811;28;658764;-68
2023/09/05 07:25:21;;;;;;;8.37;4.03;;;19.10;99.90;;;;;;4411305;28;657878;-67
2023/09/05 07:28:08;;;;;;;5.90;3.63;;;19.20;99.90;;;;;;4388675;28;657291;-68
2023/09/05 07:30:55;;;;;;;7.73;3.73;;;19.30;99.90;;;;;;4404573;28;657468;-67
2023/09/05 07:33:44;;;;;;;10.07;3.57;;;19.50;99.90;;;;;;4390525;28;656261;-67
2023/09/05 07:36:33;;;;;;;6.90;3.40;;;19.60;99.90;;;;;;4403562;28;657867;-67
2023/09/05 07:39:20;;;;;;;9.13;3.47;;;19.80;99.90;;;;;;4384574;28;656987;-67
2023/09/05 07:42:07;;;;;;;8.87;4.30;;;19.80;99.90;;;;;;4405061;28;656803;-68
2023/09/05 07:44:55;;;;;;;7.20;3.80;;;19.80;99.90;;;;;;4419831;28;656548;-68
2023/09/05 07:47:42;;;;;;;6.03;4.00;;;20.00;99.90;;;;;;4401966;28;656418;-68
2023/09/05 07:50:30;;;;;;;6.33;4.40;;;20.10;99.90;;;;;;4388858;28;657814;-68
2023/09/05 07:53:18;;;;;;;10.70;4.40;;;20.20;99.90;;;;;;4386233;28;656397;-68
2023/09/05 07:56:07;;;;;;;10.37;4.47;;;20.40;99.90;;;;;;4396608;28;658317;-68
2023/09/05 07:58:54;;;;;;;11.57;4.30;;;20.60;99.90;;;;;;4386308;28;658757;-68
2023/09/05 08:01:41;;;;;;;10.27;4.33;;;20.80;99.90;;;;;;4402442;28;656957;-68
2023/09/05 08:04:29;;;;;;;10.50;3.93;;;21.00;99.90;;;;;;4382047;28;657729;-68
2023/09/05 08:07:17;;;;;;;7.97;4.13;;;20.90;99.90;;;;;;4407145;28;657720;-68
2023/09/05 08:10:06;;;;;;;9.67;4.00;;;21.10;99.90;;;;;;4385362;28;657385;-67
2023/09/05 08:12:54;;;;;;;9.73;4.07;;;21.30;99.90;;;;;;4384235;28;657405;-68
2023/09/05 08:15:43;;;;;;;7.80;3.90;;;21.50;99.90;;;;;;4407124;28;656857;-68
2023/09/05 08:18:30;;;;;;;7.37;3.90;;;21.80;99.90;;;;;;4383536;28;657193;-68
2023/09/05 08:21:18;;;;;;;7.33;3.87;;;21.90;99.90;;;;;;4386023;28;657131;-68
2023/09/05 08:24:07;;;;;;;5.30;3.50;;;22.10;99.90;;;;;;4407211;28;656909;-67
2023/09/05 08:26:55;;;;;;;11.23;3.40;;;22.30;99.90;;;;;;4386850;28;657096;-67
2023/09/05 08:29:42;;;;;;;4.87;3.30;;;22.20;99.90;;;;;;4411453;28;657490;-68
2023/09/05 08:32:31;;;;;;;4.93;2.77;;;22.30;99.90;;;;;;4408263;28;657057;-68
2023/09/05 08:35:18;;;;;;;5.77;2.87;;;22.20;99.90;;;;;;4381616;28;657093;-68
2023/09/05 08:38:06;;;;;;;6.83;3.53;;;22.30;99.90;;;;;;4410106;28;658045;-68
2023/09/05 08:40:54;;;;;;;6.93;3.50;;;22.40;99.90;;;;;;4380943;28;656460;-68
2023/09/05 08:43:41;;;;;;;6.30;3.23;;;22.70;99.90;;;;;;4405140;28;656484;-68
2023/09/05 08:46:29;;;;;;;9.20;3.97;;;22.90;99.90;;;;;;4376690;28;657597;-68
2023/09/05 08:49:16;;;;;;;5.40;3.50;;;23.20;99.90;;;;;;4396163;28;656309;-68
2023/09/05 08:52:04;;;;;;;6.93;3.43;;;23.30;99.90;;;;;;4376347;28;656575;-68
2023/09/05 08:54:51;;;;;;;6.95;3.17;;;23.40;99.90;;;;;;4402361;28;656300;-68
2023/09/05 08:57:40;;;;;;;5.05;3.45;;;23.40;99.90;;;;;;4385924;28;656551;-67
2023/09/05 09:00:28;;;;;;;7.75;3.20;;;23.60;91.90;;;;;;4405957;28;656900;-67
2023/09/05 09:03:17;;;;;;;7.07;3.50;;;23.70;99.90;;;;;;4404464;28;656515;-68
2023/09/05 09:06:04;;;;;;;4.90;3.08;;;23.80;95.20;;;;;;4388381;28;657207;-68
2023/09/05 09:08:51;;;;;;;4.50;2.35;;;23.90;99.90;;;;;;4406981;28;656404;-68
2023/09/05 09:11:38;;;;;;;4.82;2.70;;;24.00;86.90;;;;;;4385434;28;656826;-68
2023/09/05 09:14:27;;;;;;;6.25;2.75;;;24.20;99.50;;;;;;4406498;28;656875;-68
2023/09/05 09:17:14;;;;;;;8.10;4.07;;;24.30;99.90;;;;;;4384769;28;657936;-68
2023/09/05 09:20:04;;;;;;;10.13;3.35;;;24.60;74.50;;;;;;4406217;28;657157;-68
2023/09/05 09:22:51;;;;;;;5.88;2.70;;;24.50;75.80;;;;;;4379504;28;657427;-68
2023/09/05 09:25:47;;;;;;;4.65;2.20;;;24.60;67.40;;;;;;4384989;28;656582;-68
2023/09/05 09:28:37;;;;;;;3.15;2.40;;;24.70;73.90;;;;;;4362497;28;656940;-68
2023/09/05 09:31:27;;;;;;;3.55;2.30;;;24.80;69.70;;;;;;4379454;28;658230;-67
2023/09/05 09:34:15;;;;;;;6.97;2.10;;;24.90;70.10;;;;;;4385917;28;656917;-68
2023/09/05 09:37:03;;;;;;;4.93;2.28;;;25.00;64.50;;;;;;4396651;28;657019;-67
2023/09/05 09:39:50;;;;;;;2.78;2.25;;;24.70;63.30;;;;;;4404594;28;657256;-67
2023/09/05 09:42:37;;;;;;;5.10;2.67;;;24.90;60.80;;;;;;4398855;28;656902;-68
2023/09/05 09:45:26;;;;;;;3.78;2.00;;;24.70;62.50;;;;;;4406559;28;657819;-68
2023/09/05 09:48:15;;;;;;;5.85;2.45;;;24.90;64.10;;;;;;4397482;28;656836;-68
2023/09/05 09:51:05;;;;;;;3.15;1.70;;;25.10;63.20;;;;;;4381633;28;656485;-68
2023/09/05 09:53:53;;;;;;;2.35;1.95;;;25.10;60.90;;;;;;4403358;28;656793;-67
2023/09/05 09:56:40;;;;;;;4.65;2.28;;;25.00;59.60;;;;;;4404858;28;656253;-67
2023/09/05 09:59:33;;;;;;;5.72;2.47;;;24.90;60.50;;;;;;4396165;28;657221;-68
2023/09/05 10:02:20;;;;;;;4.82;2.45;;;25.00;61.40;;;;;;4382590;28;657381;-67
2023/09/05 10:05:10;;;;;;;3.75;2.13;;;25.30;61.60;;;;;;4402159;28;656934;-67
2023/09/05 10:07:57;;;;;;;5.47;2.60;;;25.30;59.50;;;;;;4401020;28;656227;-67
2023/09/05 10:10:45;;;;;;;4.55;2.42;;;25.40;57.50;;;;;;4406796;28;657514;-67
2023/09/05 10:13:35;;;;;;;4.22;2.72;;;25.60;57.60;;;;;;4383966;28;656801;-67
2023/09/05 10:16:23;;;;;;;3.67;2.40;;;25.60;60.00;;;;;;4401323;28;657264;-67
2023/09/05 10:19:10;;;;;;;4.35;2.63;;;25.80;58.80;;;;;;4406890;28;657726;-68
2023/09/05 10:21:59;;;;;;;4.38;2.42;;;26.00;57.80;;;;;;4398852;28;657298;-67
2023/09/05 10:24:47;;;;;;;4.03;2.00;;;25.10;56.40;;;;;;4410720;28;656897;-67
2023/09/05 10:27:34;;;;;;;3.35;2.15;;;25.50;57.90;;;;;;4390079;28;657271;-67
2023/09/05 10:30:22;;;;;;;2.95;1.75;;;25.60;57.50;;;;;;4398487;28;656297;-67
2023/09/05 10:33:10;;;;;;;3.63;2.25;;;25.70;55.30;;;;;;4380530;28;656964;-67
2023/09/05 10:35:57;;;;;;;4.32;2.17;;;25.80;54.10;;;;;;4404891;28;657073;-67
2023/09/05 10:38:45;;;;;;;6.60;2.25;;;25.90;54.40;;;;;;4391369;28;657985;-67
2023/09/05 10:41:36;;;;;;;3.42;2.38;;;25.90;55.00;;;;;;4385039;28;656530;-67
2023/09/05 10:44:24;;;;;;;3.65;2.25;;;26.10;54.00;;;;;;4386069;28;657676;-65
2023/09/05 10:47:27;;;;;;;3.20;2.28;;;26.40;51.90;;;;;;4409517;28;656532;-65
2023/09/05 10:50:19;;;;;;;4.57;2.33;;;26.50;52.90;;;;;;4369777;28;657033;-65
2023/09/05 10:53:23;;;;;;;6.32;2.60;;;26.30;51.50;;;;;;4387572;28;656852;-65
2023/09/05 10:56:40;;;;;;;4.97;2.50;;;26.10;52.90;;;;;;4385308;28;657566;-65
2023/09/05 10:59:28;;;;;;;4.05;2.15;;;26.50;53.10;;;;;;4369098;28;656970;-65
2023/09/05 11:02:15;;;;;;;3.45;2.28;;;26.60;51.90;;;;;;4412653;28;657090;-65
2023/09/05 11:05:02;;;;;;;3.25;2.08;;;26.60;50.60;;;;;;4387255;28;656312;-65
2023/09/05 11:07:50;;;;;;;5.80;2.42;;;26.60;51.30;;;;;;4397450;28;657931;-65
2023/09/05 11:10:39;;;;;;;10.32;2.60;;;26.70;53.30;;;;;;4384379;28;656899;-65
2023/09/05 11:13:27;;;;;;;8.82;2.45;;;26.60;51.50;;;;;;4402190;28;657348;-65
2023/09/05 11:16:15;;;;;;;4.25;2.95;;;26.90;51.80;;;;;;4384539;28;657746;-65
2023/09/05 11:19:03;;;;;;;5.93;2.63;;;27.20;54.10;;;;;;4399036;28;656440;-65
2023/09/05 11:21:51;;;;;;;4.97;2.60;;;27.20;53.40;;;;;;4407726;28;657589;-65
2023/09/05 11:24:41;;;;;;;7.30;3.03;;;27.50;51.40;;;;;;4389653;28;656891;-65
2023/09/05 11:27:30;;;;;;;8.57;2.50;;;27.60;49.00;;;;;;4379624;28;656614;-65
2023/09/05 11:30:19;;;;;;;7.60;2.67;;;27.50;52.80;;;;;;4389126;28;657401;-65
2023/09/05 11:33:09;;;;;;;6.07;2.88;;;27.30;49.30;;;;;;4403835;28;657101;-65
2023/09/05 11:35:57;;;;;;;6.30;2.72;;;27.40;48.20;;;;;;4381362;28;656530;-65
2023/09/05 11:38:47;;;;;;;5.88;2.40;;;27.20;48.80;;;;;;4383528;28;656785;-65
2023/09/05 11:41:39;;;;;;;4.60;2.65;;;27.30;48.80;;;;;;4389409;28;657917;-65
2023/09/05 11:44:34;;;;;;;8.35;2.75;;;27.20;47.60;;;;;;4389093;28;656040;-65
2023/09/05 11:47:22;;;;;;;6.07;2.65;;;27.30;46.60;;;;;;4388224;28;656697;-65
2023/09/05 11:50:10;;;;;;;3.47;2.22;;;27.30;48.60;;;;;;4382114;28;657299;-65
2023/09/05 11:52:59;;;;;;;5.32;2.58;;;27.30;47.90;;;;;;4384026;28;656589;-65
2023/09/05 11:55:46;;;;;;;4.95;2.83;;;27.00;49.90;;;;;;4410889;28;656707;-65
2023/09/05 11:58:34;;;;;;;5.20;2.50;;;26.80;47.10;;;;;;4381899;28;656701;-65
2023/09/05 12:01:28;;;;;;;8.18;2.70;;;26.70;50.90;;;;;;4402272;28;656494;-65
2023/09/05 12:04:17;;;;;;;5.65;2.70;;;26.50;49.20;;;;;;4391302;28;656592;-64
2023/09/05 12:07:07;;;;;;;6.80;2.60;;;26.90;51.30;;;;;;4385529;28;658218;-65
2023/09/05 12:09:55;;;;;;;4.35;2.53;;;27.40;51.90;;;;;;4383484;28;658780;-65
2023/09/05 12:12:52;;;;;;;4.07;2.30;;;27.40;48.70;;;;;;4400541;28;657331;-65
2023/09/05 12:15:39;;;;;;;4.93;2.60;;;27.60;48.20;;;;;;4388711;28;656544;-65
2023/09/05 12:18:27;;;;;;;8.38;2.15;;;27.50;48.40;;;;;;4414941;28;656650;-65
2023/09/05 12:21:15;;;;;;;4.78;2.33;;;27.70;47.90;;;;;;4390797;28;657490;-65
2023/09/05 12:24:17;;;;;;;6.78;2.40;;;27.90;48.00;;;;;;4388664;28;656692;-65
2023/09/05 12:27:05;;;;;;;4.00;2.10;;;27.90;47.20;;;;;;4392124;28;657169;-65
2023/09/05 12:29:55;;;;;;;5.47;2.53;;;28.00;45.90;;;;;;4395534;28;656656;-65
2023/09/05 12:32:42;;;;;;;2.83;2.05;;;27.90;45.90;;;;;;4391763;28;656633;-65
2023/09/05 12:35:31;;;;;;;5.25;2.10;;;27.90;40.90;;;;;;4402806;28;657455;-65
2023/09/05 12:38:21;;;;;;;2.92;2.20;;;27.70;43.20;;;;;;4391060;28;656943;-64
2023/09/05 12:41:08;;;;;;;4.30;2.20;;;27.70;47.20;;;;;;4394535;28;657816;-64
2023/09/05 12:43:58;;;;;;;6.03;2.17;;;27.70;45.30;;;;;;4404467;28;656846;-65
2023/09/05 12:46:45;;;;;;;4.30;2.10;;;27.70;45.80;;;;;;4382931;28;657870;-64
2023/09/05 12:49:33;;;;;;;3.40;2.28;;;28.00;44.60;;;;;;4395070;28;656722;-65
2023/09/05 12:52:22;;;;;;;4.93;2.20;;;28.20;43.50;;;;;;4406723;28;656648;-65
2023/09/05 12:55:11;;;;;;;5.20;2.17;;;28.20;44.50;;;;;;4387667;28;658094;-64
2023/09/05 12:57:59;;;;;;;4.38;2.35;;;28.10;43.40;;;;;;4392812;28;656497;-65
2023/09/05 13:00:47;;;;;;;5.15;2.20;;;27.90;42.80;;;;;;4406470;28;656512;-64
2023/09/05 13:03:36;;;;;;;3.60;2.40;;;27.70;44.20;;;;;;4387280;28;656546;-65
2023/09/05 13:06:24;;;;;;;3.97;2.30;;;27.70;46.40;;;;;;4377098;28;656697;-64
2023/09/05 13:09:11;;;;;;;7.00;2.55;;;27.60;45.00;;;;;;4401122;28;656498;-64
2023/09/05 13:11:59;;;;;;;5.97;2.30;;;27.70;44.90;;;;;;4399597;28;656577;-65
2023/09/05 13:14:46;;;;;;;4.03;2.23;;;28.00;44.80;;;;;;4409790;28;657723;-64
2023/09/05 13:17:34;;;;;;;3.35;2.33;;;28.30;44.90;;;;;;4389549;28;657032;-64
2023/09/05 13:20:21;;;;;;;5.28;2.80;;;28.40;45.30;;;;;;4406073;28;656406;-64
2023/09/05 13:23:09;;;;;;;4.07;2.75;;;28.40;43.10;;;;;;4393611;28;656776;-65
2023/09/05 13:25:58;;;;;;;4.72;2.42;;;28.70;45.90;;;;;;4405100;28;656689;-65
2023/09/05 13:28:47;;;;;;;6.28;2.53;;;29.00;46.10;;;;;;4383706;28;657955;-65
2023/09/05 13:31:34;;;;;;;5.47;2.47;;;28.90;42.30;;;;;;4387660;28;657883;-65
2023/09/05 13:34:21;;;;;;;7.72;2.95;;;28.90;44.00;;;;;;4410155;28;656696;-65
2023/09/05 13:37:08;;;;;;;6.20;2.97;;;29.00;44.40;;;;;;4380038;28;656576;-64
2023/09/05 13:39:56;;;;;;;4.50;2.47;;;29.10;42.90;;;;;;4414737;28;656630;-65
2023/09/05 13:42:43;;;;;;;6.57;2.40;;;28.80;42.80;;;;;;4384609;28;656648;-65
2023/09/05 13:45:31;;;;;;;8.18;2.70;;;28.90;42.70;;;;;;4411474;28;657302;-64
2023/09/05 13:48:19;;;;;;;5.38;2.70;;;28.80;42.20;;;;;;4385487;28;656593;-64
2023/09/05 13:51:07;;;;;;;6.35;2.88;;;28.80;41.60;;;;;;4401790;28;657239;-64
2023/09/05 13:53:54;;;;;;;5.65;2.70;;;28.70;43.70;;;;;;4388005;28;656515;-64
2023/09/05 13:56:42;;;;;;;4.20;2.70;;;28.50;43.20;;;;;;4409866;28;656240;-65
2023/09/05 13:59:30;;;;;;;3.97;2.40;;;28.50;42.90;;;;;;4376930;28;657182;-65
2023/09/05 14:02:18;;;;;;;4.20;2.60;;;28.60;42.70;;;;;;4408132;28;656505;-65
2023/09/05 14:05:06;;;;;;;5.37;3.00;;;29.00;42.10;;;;;;4382200;28;657500;-64
2023/09/05 14:07:54;;;;;;;6.80;2.67;;;29.00;42.80;;;;;;4379064;28;656391;-64
2023/09/05 14:10:42;;;;;;;6.88;2.78;;;28.90;43.40;;;;;;4401710;28;656956;-64
2023/09/05 14:13:30;;;;;;;5.60;2.72;;;28.80;44.30;;;;;;4389421;28;657825;-64
2023/09/05 14:16:18;;;;;;;4.68;2.95;;;28.60;43.30;;;;;;4411475;28;656832;-64
2023/09/05 14:19:07;;;;;;;6.25;2.63;;;28.30;44.70;;;;;;4379718;28;656774;-64
2023/09/05 14:21:54;;;;;;;7.53;2.67;;;28.30;44.70;;;;;;4398873;28;657338;-64